Terminal Aerodrome Forecast
Issued by NWS

Home | Current Version | Previous Version | Text Only | Print | Product List | Glossary On
Versions: 1 2 3 4 5 6 7 8 9 10 11 12 13 14
000
FTUS45 KTFX 292349
TAFHVR
TAF
KHVR 292349Z 3000/3024 30011KT P6SM VCSH SCT060 BKN100
     FM300200 24006KT P6SM SCT090 BKN200
     FM301200 23011KT P6SM VCSH SCT040 BKN070 PROB30 3014/3018 -SHRA
      BKN040
     FM301800 27015G23KT P6SM VCSH SCT035 OVC060 PROB30 3018/3024
      -SHRA BKN035=

USA.gov is the U.S. government's official web portal to all federal, state and local government web resources and services.